GER226N EDXW-EDDK
Flight info
| Callsign | GER226N |
|---|---|
| Flight time | 0h 59m |
| Altitude | 34000 |
| Route | OLDIP1B OLDIP DCT BADOS DCT OMWEG Y348 ELSOB DCT LARBU Z189 RUNER/N0374F240 T858 GETNI/N0363F220 T858 KOPAG KOPAG1C |
| Aircraft | E190/M-SDE3GILORVW/S |
Departure
| Time | 2026-05-06 21:22 |
|---|---|
| Airport | Westerland Sylt Airport (EDXW) |
Arrival
| Time | 2026-05-06 22:21 |
|---|---|
| Airport | Cologne Bonn Airport (EDDK) |
| Time | Latitude | Longitude | Altitude | Speed | Heading |
|---|---|---|---|---|---|
| 2026-05-06 20:44 | 54.91348 | 8.33141 | 28 ft | 0 kts | 270° |
| 2026-05-06 20:52 | 54.91351 | 8.33121 | 28 ft | 0 kts | 270° |
| 2026-05-06 21:12 | 54.91351 | 8.33143 | 27 ft | 4 kts | 276° |
| 2026-05-06 21:12 | 54.91347 | 8.33189 | 27 ft | 4 kts | 268° |
| 2026-05-06 21:12 | 54.91354 | 8.33222 | 28 ft | 4 kts | 227° |
| 2026-05-06 21:13 | 54.91374 | 8.33247 | 28 ft | 4 kts | 188° |
| 2026-05-06 21:13 | 54.91392 | 8.33249 | 27 ft | 0 kts | 180° |
| 2026-05-06 21:16 | 54.91391 | 8.33249 | 27 ft | 0 kts | 180° |
| 2026-05-06 21:16 | 54.91367 | 8.33250 | 28 ft | 8 kts | 179° |
| 2026-05-06 21:16 | 54.91309 | 8.33221 | 28 ft | 10 kts | 202° |
| 2026-05-06 21:17 | 54.91248 | 8.33179 | 30 ft | 9 kts | 183° |
| 2026-05-06 21:17 | 54.91180 | 8.33179 | 33 ft | 11 kts | 180° |
| 2026-05-06 21:17 | 54.91102 | 8.33179 | 33 ft | 13 kts | 180° |
| 2026-05-06 21:17 | 54.91008 | 8.33142 | 33 ft | 15 kts | 204° |
| 2026-05-06 21:18 | 54.90939 | 8.33117 | 33 ft | 8 kts | 157° |
| 2026-05-06 21:18 | 54.90885 | 8.33167 | 34 ft | 11 kts | 154° |
| 2026-05-06 21:18 | 54.90792 | 8.33215 | 34 ft | 16 kts | 172° |
| 2026-05-06 21:18 | 54.90672 | 8.33234 | 34 ft | 18 kts | 176° |
| 2026-05-06 21:19 | 54.90539 | 8.33253 | 33 ft | 19 kts | 170° |
| 2026-05-06 21:19 | 54.90416 | 8.33339 | 33 ft | 20 kts | 148° |
| 2026-05-06 21:19 | 54.90312 | 8.33519 | 32 ft | 22 kts | 124° |
| 2026-05-06 21:19 | 54.90258 | 8.33762 | 32 ft | 22 kts | 99° |
| 2026-05-06 21:20 | 54.90237 | 8.34028 | 32 ft | 23 kts | 95° |
| 2026-05-06 21:20 | 54.90250 | 8.34284 | 33 ft | 21 kts | 79° |
| 2026-05-06 21:20 | 54.90277 | 8.34540 | 34 ft | 22 kts | 80° |
| 2026-05-06 21:20 | 54.90305 | 8.34805 | 34 ft | 23 kts | 80° |
| 2026-05-06 21:21 | 54.90330 | 8.35048 | 34 ft | 15 kts | 78° |
| 2026-05-06 21:21 | 54.90382 | 8.35166 | 35 ft | 9 kts | 41° |
| 2026-05-06 21:21 | 54.90429 | 8.35156 | 36 ft | 8 kts | 327° |
| 2026-05-06 21:21 | 54.90588 | 8.34959 | 35 ft | 62 kts | 324° |
| 2026-05-06 21:22 | 54.91146 | 8.34271 | 37 ft | 131 kts | 324° |
| 2026-05-06 21:22 | 54.91974 | 8.33162 | 424 ft | 160 kts | 326° |
| 2026-05-06 21:22 | 54.92832 | 8.31955 | 866 ft | 151 kts | 326° |
| 2026-05-06 21:22 | 54.93663 | 8.30781 | 1065 ft | 157 kts | 325° |
| 2026-05-06 21:23 | 54.94539 | 8.29610 | 1611 ft | 166 kts | 326° |
| 2026-05-06 21:23 | 54.95525 | 8.28399 | 2049 ft | 180 kts | 330° |
| 2026-05-06 21:23 | 54.96622 | 8.27182 | 2502 ft | 197 kts | 331° |
| 2026-05-06 21:23 | 54.97838 | 8.25861 | 3047 ft | 212 kts | 326° |
| 2026-05-06 21:24 | 54.98822 | 8.23914 | 3805 ft | 220 kts | 297° |
| 2026-05-06 21:24 | 54.99196 | 8.21310 | 4501 ft | 227 kts | 272° |
| 2026-05-06 21:24 | 54.98780 | 8.18602 | 4945 ft | 242 kts | 234° |
| 2026-05-06 21:24 | 54.97521 | 8.16749 | 5804 ft | 233 kts | 211° |
| 2026-05-06 21:25 | 54.96169 | 8.15266 | 6667 ft | 227 kts | 214° |
| 2026-05-06 21:25 | 54.94951 | 8.13522 | 7298 ft | 228 kts | 228° |
| 2026-05-06 21:25 | 54.93740 | 8.11746 | 7873 ft | 232 kts | 202° |
| 2026-05-06 21:25 | 54.92155 | 8.11481 | 8452 ft | 234 kts | 165° |
| 2026-05-06 21:26 | 54.90743 | 8.12928 | 8796 ft | 249 kts | 133° |
| 2026-05-06 21:26 | 54.89563 | 8.15283 | 9081 ft | 267 kts | 130° |
| 2026-05-06 21:26 | 54.88277 | 8.17726 | 9424 ft | 282 kts | 141° |
| 2026-05-06 21:26 | 54.86635 | 8.19686 | 9970 ft | 288 kts | 148° |
| 2026-05-06 21:27 | 54.84891 | 8.21544 | 10345 ft | 302 kts | 149° |
| 2026-05-06 21:27 | 54.83070 | 8.23434 | 10692 ft | 314 kts | 149° |
| 2026-05-06 21:27 | 54.81228 | 8.25535 | 11234 ft | 319 kts | 147° |
| 2026-05-06 21:27 | 54.79379 | 8.27701 | 11851 ft | 323 kts | 147° |
| 2026-05-06 21:28 | 54.77514 | 8.29894 | 12487 ft | 325 kts | 147° |
| 2026-05-06 21:28 | 54.75638 | 8.32099 | 13124 ft | 328 kts | 146° |
| 2026-05-06 21:28 | 54.73740 | 8.34336 | 13739 ft | 332 kts | 147° |
| 2026-05-06 21:28 | 54.71825 | 8.36589 | 14295 ft | 335 kts | 147° |
| 2026-05-06 21:29 | 54.69887 | 8.38862 | 14861 ft | 338 kts | 148° |
| 2026-05-06 21:29 | 54.67930 | 8.41160 | 15420 ft | 341 kts | 148° |
| 2026-05-06 21:29 | 54.65957 | 8.43466 | 15978 ft | 344 kts | 148° |
| 2026-05-06 21:29 | 54.63966 | 8.45805 | 16520 ft | 348 kts | 148° |
| 2026-05-06 21:30 | 54.61947 | 8.48158 | 17101 ft | 351 kts | 148° |
| 2026-05-06 21:30 | 54.59916 | 8.50527 | 17703 ft | 354 kts | 148° |
| 2026-05-06 21:30 | 54.57870 | 8.52920 | 18285 ft | 357 kts | 148° |
| 2026-05-06 21:30 | 54.55805 | 8.55324 | 18812 ft | 360 kts | 148° |
| 2026-05-06 21:31 | 54.53725 | 8.57744 | 19362 ft | 362 kts | 148° |
| 2026-05-06 21:31 | 54.51630 | 8.60180 | 19914 ft | 364 kts | 149° |
| 2026-05-06 21:31 | 54.49522 | 8.62620 | 20451 ft | 367 kts | 148° |
| 2026-05-06 21:31 | 54.47398 | 8.65088 | 20976 ft | 369 kts | 149° |
| 2026-05-06 21:32 | 54.45287 | 8.67529 | 21481 ft | 371 kts | 149° |
| 2026-05-06 21:32 | 54.41671 | 8.71705 | 22240 ft | 377 kts | 149° |
| 2026-05-06 21:32 | 54.38767 | 8.75057 | 22878 ft | 381 kts | 149° |
| 2026-05-06 21:33 | 54.36561 | 8.77599 | 23363 ft | 383 kts | 149° |
| 2026-05-06 21:33 | 54.34337 | 8.80154 | 23812 ft | 386 kts | 149° |
| 2026-05-06 21:33 | 54.32860 | 8.81853 | 24100 ft | 387 kts | 149° |
| 2026-05-06 21:33 | 54.30616 | 8.84425 | 24524 ft | 389 kts | 149° |
| 2026-05-06 21:34 | 54.28366 | 8.87006 | 24942 ft | 390 kts | 149° |
| 2026-05-06 21:34 | 54.26101 | 8.89596 | 25352 ft | 392 kts | 149° |
| 2026-05-06 21:34 | 54.23831 | 8.92191 | 25738 ft | 394 kts | 150° |
| 2026-05-06 21:34 | 54.21579 | 8.94762 | 26097 ft | 395 kts | 150° |
| 2026-05-06 21:35 | 54.19256 | 8.97408 | 26453 ft | 397 kts | 150° |
| 2026-05-06 21:35 | 54.16950 | 9.00035 | 26806 ft | 399 kts | 150° |
| 2026-05-06 21:35 | 54.14638 | 9.02659 | 27115 ft | 401 kts | 149° |
| 2026-05-06 21:35 | 54.12326 | 9.05345 | 27442 ft | 404 kts | 146° |
| 2026-05-06 21:36 | 54.10059 | 9.08172 | 27758 ft | 404 kts | 151° |
| 2026-05-06 21:36 | 54.07554 | 9.10305 | 28077 ft | 402 kts | 162° |
| 2026-05-06 21:36 | 54.04873 | 9.11580 | 28394 ft | 399 kts | 173° |
| 2026-05-06 21:36 | 54.02114 | 9.11954 | 28699 ft | 397 kts | 184° |
| 2026-05-06 21:37 | 53.99355 | 9.11705 | 29000 ft | 398 kts | 187° |
| 2026-05-06 21:37 | 53.96590 | 9.11329 | 29305 ft | 399 kts | 187° |
| 2026-05-06 21:37 | 53.93819 | 9.10955 | 29585 ft | 401 kts | 187° |
| 2026-05-06 21:37 | 53.91034 | 9.10614 | 29845 ft | 403 kts | 186° |
| 2026-05-06 21:38 | 53.85348 | 9.09956 | 30049 ft | 412 kts | 186° |
| 2026-05-06 21:38 | 53.82491 | 9.09643 | 30312 ft | 412 kts | 186° |
| 2026-05-06 21:38 | 53.79632 | 9.09341 | 30565 ft | 411 kts | 186° |
| 2026-05-06 21:39 | 53.76769 | 9.09205 | 30810 ft | 413 kts | 181° |
| 2026-05-06 21:39 | 53.73896 | 9.09320 | 31059 ft | 413 kts | 181° |
| 2026-05-06 21:39 | 53.71029 | 9.09465 | 31313 ft | 413 kts | 180° |
| 2026-05-06 21:39 | 53.68159 | 9.09625 | 31564 ft | 413 kts | 180° |
| 2026-05-06 21:40 | 53.65293 | 9.09791 | 31817 ft | 412 kts | 180° |
| 2026-05-06 21:40 | 53.62424 | 9.09952 | 32045 ft | 412 kts | 180° |
| 2026-05-06 21:40 | 53.59558 | 9.10117 | 32303 ft | 412 kts | 180° |
| 2026-05-06 21:40 | 53.56729 | 9.10275 | 32544 ft | 412 kts | 180° |
| 2026-05-06 21:41 | 53.53864 | 9.10437 | 32786 ft | 412 kts | 180° |
| 2026-05-06 21:41 | 53.51003 | 9.10596 | 33030 ft | 411 kts | 180° |
| 2026-05-06 21:41 | 53.48138 | 9.10756 | 33261 ft | 411 kts | 180° |
| 2026-05-06 21:41 | 53.45278 | 9.10915 | 33480 ft | 411 kts | 180° |
| 2026-05-06 21:42 | 53.42421 | 9.11073 | 33702 ft | 410 kts | 180° |
| 2026-05-06 21:42 | 53.39634 | 9.11232 | 33805 ft | 390 kts | 181° |
| 2026-05-06 21:42 | 53.34252 | 9.11524 | 33892 ft | 392 kts | 181° |
| 2026-05-06 21:43 | 53.28709 | 9.11830 | 33931 ft | 405 kts | 181° |
| 2026-05-06 21:43 | 53.22978 | 9.12145 | 33930 ft | 418 kts | 181° |
| 2026-05-06 21:44 | 53.17202 | 9.12463 | 33907 ft | 413 kts | 181° |
| 2026-05-06 21:44 | 53.11456 | 9.12778 | 33919 ft | 414 kts | 181° |
| 2026-05-06 21:45 | 53.05703 | 9.13092 | 33906 ft | 413 kts | 181° |
| 2026-05-06 21:45 | 52.99954 | 9.13404 | 33912 ft | 414 kts | 181° |
| 2026-05-06 21:46 | 52.94203 | 9.13716 | 33906 ft | 413 kts | 181° |
| 2026-05-06 21:46 | 52.88482 | 9.13988 | 33901 ft | 408 kts | 184° |
| 2026-05-06 21:47 | 52.83000 | 9.12048 | 33907 ft | 403 kts | 205° |
| 2026-05-06 21:47 | 52.77950 | 9.08135 | 33908 ft | 405 kts | 207° |
| 2026-05-06 21:48 | 52.72846 | 9.04187 | 33902 ft | 405 kts | 206° |
| 2026-05-06 21:48 | 52.67745 | 9.00262 | 33899 ft | 405 kts | 206° |
| 2026-05-06 21:49 | 52.62635 | 8.96336 | 33900 ft | 406 kts | 206° |
| 2026-05-06 21:49 | 52.57518 | 8.92415 | 33580 ft | 404 kts | 206° |
| 2026-05-06 21:50 | 52.54961 | 8.90456 | 32541 ft | 407 kts | 206° |
| 2026-05-06 21:50 | 52.52402 | 8.88502 | 31964 ft | 403 kts | 206° |
| 2026-05-06 21:50 | 52.49863 | 8.86565 | 31454 ft | 403 kts | 206° |
| 2026-05-06 21:50 | 52.47310 | 8.84617 | 30956 ft | 407 kts | 206° |
| 2026-05-06 21:51 | 52.44736 | 8.82661 | 30469 ft | 408 kts | 206° |
| 2026-05-06 21:51 | 52.42162 | 8.80702 | 29978 ft | 408 kts | 205° |
| 2026-05-06 21:51 | 52.39591 | 8.78751 | 29426 ft | 407 kts | 205° |
| 2026-05-06 21:51 | 52.37027 | 8.76809 | 28881 ft | 405 kts | 205° |
| 2026-05-06 21:52 | 52.34475 | 8.74874 | 28411 ft | 402 kts | 205° |
| 2026-05-06 21:52 | 52.31937 | 8.72957 | 27945 ft | 400 kts | 205° |
| 2026-05-06 21:52 | 52.29419 | 8.71053 | 27486 ft | 398 kts | 205° |
| 2026-05-06 21:52 | 52.26910 | 8.69161 | 27038 ft | 396 kts | 205° |
| 2026-05-06 21:53 | 52.24417 | 8.67283 | 26596 ft | 394 kts | 205° |
| 2026-05-06 21:53 | 52.21935 | 8.65414 | 26159 ft | 392 kts | 205° |
| 2026-05-06 21:53 | 52.19463 | 8.63558 | 25716 ft | 390 kts | 205° |
| 2026-05-06 21:53 | 52.17005 | 8.61710 | 25294 ft | 388 kts | 205° |
| 2026-05-06 21:54 | 52.14560 | 8.59879 | 24873 ft | 387 kts | 205° |
| 2026-05-06 21:54 | 52.12119 | 8.58050 | 24461 ft | 385 kts | 205° |
| 2026-05-06 21:54 | 52.09692 | 8.56235 | 24055 ft | 383 kts | 205° |
| 2026-05-06 21:54 | 52.07277 | 8.54431 | 23654 ft | 382 kts | 205° |
| 2026-05-06 21:55 | 52.04864 | 8.52630 | 23219 ft | 380 kts | 205° |
| 2026-05-06 21:55 | 52.02550 | 8.50909 | 22920 ft | 376 kts | 205° |
| 2026-05-06 21:55 | 52.00171 | 8.49134 | 22955 ft | 378 kts | 205° |
| 2026-05-06 21:55 | 51.97776 | 8.47356 | 22988 ft | 379 kts | 205° |
| 2026-05-06 21:56 | 51.95368 | 8.45567 | 23000 ft | 381 kts | 205° |
| 2026-05-06 21:56 | 51.93003 | 8.43812 | 22955 ft | 381 kts | 205° |
| 2026-05-06 21:56 | 51.91511 | 8.42706 | 22919 ft | 381 kts | 205° |
| 2026-05-06 21:58 | 51.91099 | 8.42401 | 22895 ft | 377 kts | 205° |
| 2026-05-06 21:59 | 51.88711 | 8.40628 | 22498 ft | 382 kts | 205° |
| 2026-05-06 21:59 | 51.86305 | 8.38834 | 22104 ft | 379 kts | 206° |
| 2026-05-06 21:59 | 51.83920 | 8.37055 | 21707 ft | 375 kts | 206° |
| 2026-05-06 21:59 | 51.81579 | 8.35314 | 21315 ft | 373 kts | 206° |
| 2026-05-06 22:00 | 51.79209 | 8.33556 | 20920 ft | 372 kts | 206° |
| 2026-05-06 22:00 | 51.76860 | 8.31820 | 20539 ft | 371 kts | 206° |
| 2026-05-06 22:00 | 51.74561 | 8.30127 | 20159 ft | 370 kts | 205° |
| 2026-05-06 22:00 | 51.72226 | 8.28412 | 19786 ft | 368 kts | 206° |
| 2026-05-06 22:01 | 51.69900 | 8.26709 | 19414 ft | 367 kts | 205° |
| 2026-05-06 22:01 | 51.67575 | 8.25003 | 19054 ft | 366 kts | 205° |
| 2026-05-06 22:01 | 51.65262 | 8.23305 | 18699 ft | 364 kts | 206° |
| 2026-05-06 22:01 | 51.62969 | 8.21632 | 18345 ft | 361 kts | 205° |
| 2026-05-06 22:02 | 51.60683 | 8.19974 | 17923 ft | 360 kts | 205° |
| 2026-05-06 22:02 | 51.58515 | 8.18405 | 17458 ft | 358 kts | 205° |
| 2026-05-06 22:02 | 51.56325 | 8.16815 | 16997 ft | 357 kts | 206° |
| 2026-05-06 22:02 | 51.54066 | 8.15181 | 16527 ft | 356 kts | 206° |
| 2026-05-06 22:03 | 51.51807 | 8.13558 | 15995 ft | 356 kts | 205° |
| 2026-05-06 22:03 | 51.49556 | 8.11933 | 15447 ft | 354 kts | 205° |
| 2026-05-06 22:03 | 51.47325 | 8.10313 | 14964 ft | 351 kts | 205° |
| 2026-05-06 22:03 | 51.45103 | 8.08688 | 14522 ft | 350 kts | 205° |
| 2026-05-06 22:04 | 51.42915 | 8.07083 | 14112 ft | 350 kts | 205° |
| 2026-05-06 22:04 | 51.40701 | 8.05460 | 13708 ft | 349 kts | 205° |
| 2026-05-06 22:04 | 51.38504 | 8.03841 | 13264 ft | 347 kts | 205° |
| 2026-05-06 22:04 | 51.36345 | 8.02247 | 12825 ft | 344 kts | 205° |
| 2026-05-06 22:05 | 51.34175 | 8.00649 | 12381 ft | 342 kts | 205° |
| 2026-05-06 22:05 | 51.32017 | 7.99063 | 11945 ft | 341 kts | 205° |
| 2026-05-06 22:05 | 51.29871 | 7.97492 | 11519 ft | 338 kts | 205° |
| 2026-05-06 22:05 | 51.27750 | 7.95941 | 11090 ft | 331 kts | 205° |
| 2026-05-06 22:06 | 51.25677 | 7.94432 | 10665 ft | 323 kts | 205° |
| 2026-05-06 22:06 | 51.23652 | 7.92963 | 10245 ft | 317 kts | 205° |
| 2026-05-06 22:06 | 51.21671 | 7.91531 | 9824 ft | 308 kts | 205° |
| 2026-05-06 22:06 | 51.19727 | 7.90130 | 9376 ft | 305 kts | 205° |
| 2026-05-06 22:07 | 51.17808 | 7.88749 | 8924 ft | 300 kts | 205° |
| 2026-05-06 22:07 | 51.15927 | 7.87395 | 8478 ft | 294 kts | 205° |
| 2026-05-06 22:07 | 51.14074 | 7.86062 | 8028 ft | 291 kts | 205° |
| 2026-05-06 22:07 | 51.12236 | 7.84735 | 7593 ft | 289 kts | 205° |
| 2026-05-06 22:08 | 51.10412 | 7.83414 | 7166 ft | 287 kts | 205° |
| 2026-05-06 22:08 | 51.08602 | 7.82101 | 6747 ft | 285 kts | 205° |
| 2026-05-06 22:08 | 51.06818 | 7.80802 | 6452 ft | 279 kts | 205° |
| 2026-05-06 22:08 | 51.05065 | 7.79529 | 6200 ft | 276 kts | 205° |
| 2026-05-06 22:09 | 51.03308 | 7.78263 | 5933 ft | 278 kts | 205° |
| 2026-05-06 22:09 | 51.01545 | 7.77009 | 5673 ft | 277 kts | 203° |
| 2026-05-06 22:09 | 50.99706 | 7.76080 | 5414 ft | 277 kts | 196° |
| 2026-05-06 22:09 | 50.97837 | 7.75338 | 5172 ft | 276 kts | 194° |
| 2026-05-06 22:10 | 50.95966 | 7.74654 | 4923 ft | 276 kts | 194° |
| 2026-05-06 22:10 | 50.94109 | 7.73944 | 4669 ft | 274 kts | 200° |
| 2026-05-06 22:10 | 50.92347 | 7.72802 | 4406 ft | 274 kts | 206° |
| 2026-05-06 22:10 | 50.90631 | 7.71535 | 4160 ft | 271 kts | 207° |
| 2026-05-06 22:11 | 50.88939 | 7.70233 | 4036 ft | 270 kts | 208° |
| 2026-05-06 22:11 | 50.87247 | 7.68916 | 3991 ft | 271 kts | 208° |
| 2026-05-06 22:11 | 50.85580 | 7.67607 | 3970 ft | 272 kts | 208° |
| 2026-05-06 22:11 | 50.83889 | 7.66282 | 3970 ft | 271 kts | 208° |
| 2026-05-06 22:12 | 50.82232 | 7.64983 | 3967 ft | 258 kts | 208° |
| 2026-05-06 22:12 | 50.80678 | 7.63758 | 3951 ft | 242 kts | 208° |
| 2026-05-06 22:12 | 50.79211 | 7.62610 | 3958 ft | 229 kts | 208° |
| 2026-05-06 22:12 | 50.77787 | 7.61505 | 3772 ft | 229 kts | 208° |
| 2026-05-06 22:13 | 50.76354 | 7.60395 | 3504 ft | 230 kts | 208° |
| 2026-05-06 22:13 | 50.74920 | 7.59286 | 3257 ft | 229 kts | 208° |
| 2026-05-06 22:13 | 50.73520 | 7.58119 | 3081 ft | 224 kts | 216° |
| 2026-05-06 22:13 | 50.72281 | 7.56670 | 3016 ft | 218 kts | 221° |
| 2026-05-06 22:14 | 50.71114 | 7.55189 | 2987 ft | 212 kts | 222° |
| 2026-05-06 22:14 | 50.70033 | 7.53777 | 2976 ft | 214 kts | 223° |
| 2026-05-06 22:14 | 50.69148 | 7.51968 | 2982 ft | 208 kts | 256° |
| 2026-05-06 22:14 | 50.69064 | 7.49740 | 3015 ft | 204 kts | 278° |
| 2026-05-06 22:15 | 50.69233 | 7.47533 | 2997 ft | 202 kts | 282° |
| 2026-05-06 22:15 | 50.69450 | 7.45333 | 2992 ft | 204 kts | 283° |
| 2026-05-06 22:15 | 50.69680 | 7.43121 | 2989 ft | 205 kts | 282° |
| 2026-05-06 22:15 | 50.69906 | 7.40908 | 3006 ft | 204 kts | 283° |
| 2026-05-06 22:16 | 50.70327 | 7.38817 | 2973 ft | 198 kts | 306° |
| 2026-05-06 22:16 | 50.71237 | 7.37221 | 2962 ft | 196 kts | 320° |
| 2026-05-06 22:16 | 50.72257 | 7.35780 | 2991 ft | 198 kts | 319° |
| 2026-05-06 22:16 | 50.73255 | 7.34276 | 2985 ft | 198 kts | 319° |
| 2026-05-06 22:17 | 50.74274 | 7.32815 | 2976 ft | 197 kts | 320° |
| 2026-05-06 22:17 | 50.75240 | 7.31426 | 3006 ft | 181 kts | 320° |
| 2026-05-06 22:17 | 50.76167 | 7.30084 | 2787 ft | 178 kts | 320° |
| 2026-05-06 22:17 | 50.76768 | 7.29220 | 2630 ft | 175 kts | 320° |
| 2026-05-06 22:18 | 50.77957 | 7.27501 | 2343 ft | 172 kts | 320° |
| 2026-05-06 22:18 | 50.78528 | 7.26675 | 2231 ft | 162 kts | 321° |
| 2026-05-06 22:18 | 50.79556 | 7.25198 | 1946 ft | 143 kts | 321° |
| 2026-05-06 22:18 | 50.80255 | 7.24186 | 1748 ft | 129 kts | 321° |
| 2026-05-06 22:19 | 50.80910 | 7.23242 | 1532 ft | 129 kts | 320° |
| 2026-05-06 22:19 | 50.81572 | 7.22265 | 1403 ft | 130 kts | 319° |
| 2026-05-06 22:19 | 50.82019 | 7.21613 | 1295 ft | 129 kts | 319° |
| 2026-05-06 22:19 | 50.82695 | 7.20659 | 1128 ft | 132 kts | 321° |
| 2026-05-06 22:20 | 50.83368 | 7.19690 | 943 ft | 130 kts | 318° |
| 2026-05-06 22:20 | 50.84033 | 7.18729 | 725 ft | 130 kts | 317° |
| 2026-05-06 22:20 | 50.84705 | 7.17746 | 553 ft | 132 kts | 318° |
| 2026-05-06 22:20 | 50.85386 | 7.16762 | 404 ft | 133 kts | 319° |
| 2026-05-06 22:21 | 50.86049 | 7.15801 | 298 ft | 120 kts | 319° |
| 2026-05-06 22:21 | 50.86605 | 7.14999 | 274 ft | 98 kts | 318° |
| 2026-05-06 22:21 | 50.87032 | 7.14373 | 253 ft | 56 kts | 317° |
| 2026-05-06 22:21 | 50.87227 | 7.14088 | 244 ft | 23 kts | 309° |
| 2026-05-06 22:22 | 50.87301 | 7.13848 | 240 ft | 26 kts | 284° |
| 2026-05-06 22:22 | 50.87331 | 7.13593 | 235 ft | 19 kts | 279° |
| 2026-05-06 22:22 | 50.87372 | 7.13432 | 231 ft | 16 kts | 313° |
| 2026-05-06 22:22 | 50.87460 | 7.13304 | 231 ft | 18 kts | 318° |
| 2026-05-06 22:23 | 50.87557 | 7.13159 | 231 ft | 21 kts | 317° |
| 2026-05-06 22:23 | 50.87675 | 7.12989 | 231 ft | 24 kts | 318° |
| 2026-05-06 22:23 | 50.87763 | 7.12862 | 231 ft | 11 kts | 318° |
| 2026-05-06 22:23 | 50.87793 | 7.12782 | 233 ft | 9 kts | 271° |
| 2026-05-06 22:24 | 50.87794 | 7.12672 | 233 ft | 11 kts | 298° |
| 2026-05-06 22:24 | 50.87878 | 7.12613 | 231 ft | 16 kts | 1° |
| 2026-05-06 22:24 | 50.87974 | 7.12535 | 231 ft | 17 kts | 317° |
| 2026-05-06 22:24 | 50.88063 | 7.12399 | 231 ft | 19 kts | 310° |
| 2026-05-06 22:25 | 50.88140 | 7.12233 | 231 ft | 16 kts | 306° |
| 2026-05-06 22:25 | 50.88187 | 7.12148 | 231 ft | 7 kts | 342° |
| 2026-05-06 22:25 | 50.88233 | 7.12183 | 232 ft | 7 kts | 36° |
| 2026-05-06 22:25 | 50.88246 | 7.12197 | 232 ft | 0 kts | 36° |
| 2026-05-06 22:27 | 50.88245 | 7.12198 | 232 ft | 0 kts | 39° |